createdAt,value
2023-01-13T00:01:26.775Z,95109.40
2023-01-13T00:03:53.824Z,95108.60
2023-01-13T00:06:23.200Z,95109.20
2023-01-13T00:08:51.804Z,95104.00
2023-01-13T00:11:20.539Z,95094.80
2023-01-13T00:13:47.155Z,95092.80
2023-01-13T00:16:18.130Z,95083.60
2023-01-13T00:18:45.826Z,95078.40
2023-01-13T00:21:18.245Z,95080.40
2023-01-13T00:23:45.936Z,95079.40
2023-01-13T00:26:19.091Z,95076.60
2023-01-13T00:28:46.042Z,95076.40
2023-01-13T00:31:17.320Z,95070.40
2023-01-13T00:33:44.435Z,95068.40
2023-01-13T00:36:13.779Z,95059.60
2023-01-13T00:38:42.852Z,95058.60
2023-01-13T00:41:23.035Z,95058.40
2023-01-13T00:43:50.690Z,95057.20
2023-01-13T00:46:21.179Z,95057.60
2023-01-13T00:48:49.598Z,95059.60
2023-01-13T00:51:20.613Z,95054.80
2023-01-13T00:53:52.386Z,95059.80
2023-01-13T00:56:38.524Z,95061.60
2023-01-13T00:59:06.591Z,95057.40
2023-01-13T01:01:33.490Z,95065.20
2023-01-13T01:04:00.207Z,95064.20
2023-01-13T01:06:28.264Z,95067.60
2023-01-13T01:08:56.261Z,95064.40
2023-01-13T01:11:29.604Z,95058.20
2023-01-13T01:14:00.669Z,95060.00
2023-01-13T01:16:29.408Z,95063.20
2023-01-13T01:18:57.019Z,95062.00
2023-01-13T01:21:26.575Z,95057.00
2023-01-13T01:23:54.100Z,95048.60
2023-01-13T01:26:24.467Z,95051.00
2023-01-13T01:28:51.910Z,95048.60
2023-01-13T01:31:28.785Z,95043.60
2023-01-13T01:33:55.668Z,95043.40
2023-01-13T01:36:24.062Z,95043.80
2023-01-13T01:38:50.695Z,95039.00
2023-01-13T01:41:25.073Z,95038.60
2023-01-13T01:44:04.317Z,95039.40
2023-01-13T01:46:39.176Z,95035.40
2023-01-13T01:49:33.838Z,95031.60
2023-01-13T01:52:12.409Z,95030.40
2023-01-13T01:54:49.250Z,95031.80
2023-01-13T01:57:23.933Z,95032.00
2023-01-13T01:59:51.841Z,95021.00
2023-01-13T02:02:18.653Z,95012.20
2023-01-13T02:04:51.601Z,95006.80
2023-01-13T02:07:24.093Z,95007.80
2023-01-13T02:09:53.285Z,95002.40
2023-01-13T02:12:29.349Z,95004.20
2023-01-13T02:15:08.041Z,95001.40
2023-01-13T02:18:02.571Z,94997.00
2023-01-13T02:20:48.738Z,95000.20
2023-01-13T02:24:14.879Z,94996.60
2023-01-13T02:26:44.021Z,94991.80
2023-01-13T02:30:04.623Z,94995.00
2023-01-13T02:32:42.714Z,94989.80
2023-01-13T02:35:28.651Z,94988.40
2023-01-13T02:37:57.760Z,94984.40
2023-01-13T02:40:40.925Z,94980.80
2023-01-13T02:43:55.632Z,94977.80
2023-01-13T02:46:33.213Z,94975.40
2023-01-13T02:49:05.808Z,94980.20
2023-01-13T02:51:33.284Z,94981.40
2023-01-13T02:54:11.233Z,94983.00
2023-01-13T02:56:43.080Z,94981.40
2023-01-13T02:59:10.800Z,94980.00
2023-01-13T03:01:37.998Z,94975.40
2023-01-13T03:04:32.172Z,94975.20
2023-01-13T03:07:15.368Z,94967.80
2023-01-13T03:09:51.960Z,94970.20
2023-01-13T03:13:01.150Z,94964.80
2023-01-13T03:16:01.372Z,94957.60
2023-01-13T03:19:30.598Z,94953.20
2023-01-13T03:22:25.905Z,94934.80
2023-01-13T03:25:14.297Z,94940.60
2023-01-13T03:27:59.560Z,94933.80
2023-01-13T03:31:00.008Z,94920.80
2023-01-13T03:33:37.497Z,94933.20
2023-01-13T03:36:09.606Z,94928.60
2023-01-13T03:38:53.950Z,94929.20
2023-01-13T03:41:28.999Z,94926.40
2023-01-13T03:44:23.282Z,94933.60
2023-01-13T03:47:41.587Z,94939.60
2023-01-13T03:50:10.943Z,94933.00
2023-01-13T03:52:44.900Z,94929.60
2023-01-13T03:55:19.382Z,94932.00
2023-01-13T03:58:16.292Z,94928.20
2023-01-13T04:01:16.648Z,94928.80
2023-01-13T04:03:57.931Z,94921.60
2023-01-13T04:06:47.912Z,94918.20
2023-01-13T04:09:44.900Z,94917.60
2023-01-13T04:12:18.097Z,94919.80
2023-01-13T04:14:46.312Z,94911.60
2023-01-13T04:17:13.066Z,94914.00
2023-01-13T04:19:39.677Z,94916.20
2023-01-13T04:22:06.317Z,94913.00
2023-01-13T04:24:32.959Z,94913.20
2023-01-13T04:26:59.658Z,94916.00
2023-01-13T04:29:26.716Z,94916.20
2023-01-13T04:31:53.394Z,94918.00
2023-01-13T04:34:22.307Z,94910.60
2023-01-13T04:36:48.864Z,94909.00
2023-01-13T04:39:15.484Z,94908.00
2023-01-13T04:42:01.322Z,94905.00
2023-01-13T04:44:31.458Z,94904.20
2023-01-13T04:46:58.722Z,94902.20
2023-01-13T04:49:25.377Z,94901.40
2023-01-13T04:51:52.065Z,94896.80
2023-01-13T04:54:18.739Z,94889.80
2023-01-13T04:56:45.511Z,94891.80
2023-01-13T04:59:14.156Z,94877.40
2023-01-13T05:01:41.382Z,94884.60
2023-01-13T05:04:08.756Z,94884.80
2023-01-13T05:06:35.884Z,94889.00
2023-01-13T05:09:02.505Z,94890.40
2023-01-13T05:11:48.053Z,94885.60
2023-01-13T05:14:33.036Z,94892.00
2023-01-13T05:17:03.526Z,94889.60
2023-01-13T05:19:36.508Z,94887.00
2023-01-13T05:22:22.376Z,94893.80
2023-01-13T05:25:08.027Z,94895.40
2023-01-13T05:27:35.021Z,94889.80
2023-01-13T05:30:01.709Z,94887.00
2023-01-13T05:32:28.587Z,94883.80
2023-01-13T05:34:56.277Z,94884.40
2023-01-13T05:37:24.512Z,94885.20
2023-01-13T05:40:10.706Z,94883.00
2023-01-13T05:42:56.469Z,94891.00
2023-01-13T05:45:24.323Z,94887.40
2023-01-13T05:47:51.174Z,94890.00
2023-01-13T05:50:18.335Z,94886.40
2023-01-13T05:52:44.915Z,94884.00
2023-01-13T05:55:12.281Z,94882.80
2023-01-13T05:57:38.892Z,94884.20
2023-01-13T06:00:06.375Z,94877.00
2023-01-13T06:02:38.508Z,94873.20
2023-01-13T06:05:05.406Z,94873.80
2023-01-13T06:07:32.079Z,94881.40
2023-01-13T06:09:58.784Z,94879.00
2023-01-13T06:12:25.409Z,94878.20
2023-01-13T06:14:52.036Z,94881.00
2023-01-13T06:17:18.678Z,94883.60
2023-01-13T06:19:45.261Z,94888.00
2023-01-13T06:22:32.928Z,94891.20
2023-01-13T06:24:59.933Z,94890.60
2023-01-13T06:27:26.606Z,94891.20
2023-01-13T06:29:53.312Z,94894.60
2023-01-13T06:32:25.657Z,94891.20
2023-01-13T06:35:03.710Z,94896.00
2023-01-13T06:37:33.921Z,94895.00
2023-01-13T06:40:04.382Z,94891.20
2023-01-13T06:42:53.798Z,94891.60
2023-01-13T06:45:22.862Z,94890.80
2023-01-13T06:47:49.914Z,94892.20
2023-01-13T06:50:18.646Z,94898.00
2023-01-13T06:52:45.266Z,94891.60
2023-01-13T06:55:12.119Z,94894.60
2023-01-13T06:57:56.912Z,94891.80
2023-01-13T07:00:25.350Z,94889.00
2023-01-13T07:02:52.146Z,94893.40
2023-01-13T07:05:20.266Z,94900.40
2023-01-13T07:07:47.025Z,94904.80
2023-01-13T07:10:22.390Z,94906.80
2023-01-13T07:13:08.442Z,94903.80
2023-01-13T07:15:35.529Z,94899.80
2023-01-13T07:18:02.957Z,94901.80
2023-01-13T07:20:30.603Z,94900.60
2023-01-13T07:22:58.301Z,94904.80
2023-01-13T07:25:25.472Z,94899.80
2023-01-13T07:27:52.102Z,94899.20
2023-01-13T07:30:19.333Z,94891.40
2023-01-13T07:32:46.267Z,94896.20
2023-01-13T07:35:12.966Z,94905.00
2023-01-13T07:37:39.717Z,94906.80
2023-01-13T07:40:07.555Z,94904.60
2023-01-13T07:42:53.138Z,94907.40
2023-01-13T07:45:19.679Z,94909.80
2023-01-13T07:47:46.344Z,94915.80
2023-01-13T07:50:12.951Z,94918.20
2023-01-13T07:52:39.662Z,94922.40
2023-01-13T07:55:06.906Z,94921.20
2023-01-13T07:57:33.617Z,94924.60
2023-01-13T08:00:00.258Z,94923.20
2023-01-13T08:02:27.162Z,94920.80
2023-01-13T08:04:53.975Z,94927.60
2023-01-13T08:07:20.686Z,94924.60
2023-01-13T08:09:47.379Z,94921.60
2023-01-13T08:12:32.674Z,94919.20
2023-01-13T08:14:59.265Z,94924.20
2023-01-13T08:17:26.048Z,94919.00
2023-01-13T08:19:52.694Z,94921.20
2023-01-13T08:22:19.343Z,94925.80
2023-01-13T08:24:45.999Z,94915.40
2023-01-13T08:27:12.655Z,94921.80
2023-01-13T08:29:39.309Z,94922.80
2023-01-13T08:32:06.721Z,94929.20
2023-01-13T08:34:33.433Z,94926.60
2023-01-13T08:37:00.211Z,94924.20
2023-01-13T08:39:27.075Z,94923.80
2023-01-13T08:41:56.676Z,94931.00
2023-01-13T08:44:26.382Z,94926.40
2023-01-13T08:46:54.296Z,94925.00
2023-01-13T08:49:22.311Z,94924.60
2023-01-13T08:51:50.516Z,94927.00
2023-01-13T08:54:18.993Z,94932.00
2023-01-13T08:56:47.128Z,94934.40
2023-01-13T08:59:16.843Z,94938.00
2023-01-13T09:01:48.384Z,94939.40
2023-01-13T09:04:21.784Z,94937.80
2023-01-13T09:06:50.045Z,94937.60
2023-01-13T09:09:17.171Z,94945.20
2023-01-13T09:12:07.781Z,94936.00
2023-01-13T09:14:37.657Z,94949.40
2023-01-13T09:17:04.810Z,94942.40
2023-01-13T09:19:31.398Z,94949.00
2023-01-13T09:21:58.053Z,94948.40
2023-01-13T09:24:25.715Z,94955.00
2023-01-13T09:26:53.209Z,94959.20
2023-01-13T09:29:20.414Z,94952.40
2023-01-13T09:31:47.324Z,94958.20
2023-01-13T09:34:38.774Z,94957.20
2023-01-13T09:37:07.008Z,94954.60
2023-01-13T09:39:35.715Z,94957.80
2023-01-13T09:43:03.642Z,94964.20
2023-01-13T09:45:32.423Z,94957.40
2023-01-13T09:48:30.178Z,94947.40
2023-01-13T09:51:21.032Z,94953.40
2023-01-13T09:53:58.920Z,94952.80
2023-01-13T09:56:26.499Z,94953.20
2023-01-13T09:58:53.269Z,94948.80
2023-01-13T10:02:00.259Z,94946.60
2023-01-13T10:04:27.802Z,94946.20
2023-01-13T10:07:03.972Z,94945.20
2023-01-13T10:09:43.190Z,94951.60
2023-01-13T10:12:38.208Z,94940.00
2023-01-13T10:15:05.570Z,94935.00
2023-01-13T10:18:01.476Z,94926.80
2023-01-13T10:20:36.529Z,94925.00
2023-01-13T10:23:34.387Z,94917.20
2023-01-13T10:26:24.154Z,94918.20
2023-01-13T10:28:55.133Z,94912.00
2023-01-13T10:31:23.925Z,94906.80
2023-01-13T10:34:06.070Z,94911.20
2023-01-13T10:36:32.754Z,94907.80
2023-01-13T10:39:15.924Z,94906.40
2023-01-13T10:41:44.131Z,94906.00
2023-01-13T10:44:19.156Z,94897.40
2023-01-13T10:46:58.740Z,94893.00
2023-01-13T10:49:33.594Z,94891.40
2023-01-13T10:52:02.069Z,94890.40
2023-01-13T10:54:30.183Z,94888.60
2023-01-13T10:57:24.199Z,94889.80
2023-01-13T10:59:53.144Z,94892.60
2023-01-13T11:02:30.141Z,94887.20
2023-01-13T11:05:06.130Z,94888.40
2023-01-13T11:07:45.422Z,94895.20
2023-01-13T11:10:24.144Z,94894.80
2023-01-13T11:13:15.564Z,94898.40
2023-01-13T11:15:55.400Z,94894.20
2023-01-13T11:18:37.778Z,94903.00
2023-01-13T11:21:14.646Z,94900.40
2023-01-13T11:23:50.576Z,94909.20
2023-01-13T11:26:26.492Z,94905.40
2023-01-13T11:29:21.364Z,94890.80
2023-01-13T11:31:56.418Z,94895.00
2023-01-13T11:34:52.527Z,94893.00
2023-01-13T11:37:31.702Z,94891.20
2023-01-13T11:40:33.590Z,94890.60
2023-01-13T11:43:14.236Z,94891.80
2023-01-13T11:45:58.065Z,94891.20
2023-01-13T11:48:30.304Z,94892.00
2023-01-13T11:51:15.186Z,94897.00
2023-01-13T11:54:25.112Z,94881.80
2023-01-13T11:56:54.657Z,94883.20
2023-01-13T11:59:40.282Z,94886.80
2023-01-13T12:02:49.537Z,94887.40
2023-01-13T12:05:41.545Z,94891.60
2023-01-13T12:08:27.116Z,94893.00
2023-01-13T12:11:00.134Z,94895.80
2023-01-13T12:13:57.293Z,94892.00
2023-01-13T12:16:30.687Z,94904.60
2023-01-13T12:19:15.679Z,94907.20
2023-01-13T12:22:04.846Z,94902.20
2023-01-13T12:25:07.207Z,94912.40
2023-01-13T12:28:17.080Z,94906.00
2023-01-13T12:30:56.571Z,94908.80
2023-01-13T12:33:55.446Z,94908.40
2023-01-13T12:37:04.788Z,94917.40
2023-01-13T12:40:02.878Z,94916.80
2023-01-13T12:43:06.318Z,94923.00
2023-01-13T12:45:33.604Z,94922.60
2023-01-13T12:48:00.869Z,94922.00
2023-01-13T12:50:27.483Z,94936.80
2023-01-13T12:53:29.818Z,94944.20
2023-01-13T12:56:44.813Z,94936.40
2023-01-13T12:59:19.074Z,94927.40
2023-01-13T13:01:49.342Z,94917.40
2023-01-13T13:04:22.581Z,94924.00
2023-01-13T13:07:17.506Z,94931.00
2023-01-13T13:09:52.373Z,94932.40
2023-01-13T13:12:49.789Z,94928.00
2023-01-13T13:15:29.120Z,94942.80
2023-01-13T13:18:18.296Z,94941.40
2023-01-13T13:21:04.974Z,94933.20
2023-01-13T13:23:37.552Z,94930.20
2023-01-13T13:26:20.414Z,94920.80
2023-01-13T13:29:01.129Z,94919.80
2023-01-13T13:31:53.055Z,94929.40
2023-01-13T13:34:50.344Z,94920.20
2023-01-13T13:38:07.234Z,94927.00
2023-01-13T13:41:01.686Z,94930.60
2023-01-13T13:43:50.087Z,94930.40
2023-01-13T13:46:46.785Z,94930.40
2023-01-13T13:49:21.016Z,94941.60
2023-01-13T13:51:51.490Z,94942.40
2023-01-13T13:54:21.911Z,94951.00
2023-01-13T13:56:50.376Z,94956.80
2023-01-13T13:59:24.299Z,94959.80
2023-01-13T14:02:02.155Z,94947.80
2023-01-13T14:04:36.948Z,94954.60
2023-01-13T14:07:18.407Z,94966.60
2023-01-13T14:09:49.777Z,94973.60
2023-01-13T14:12:24.536Z,95028.00
2023-01-13T14:14:52.146Z,95082.80
2023-01-13T14:17:23.942Z,95108.20
2023-01-13T14:19:55.652Z,95113.40
2023-01-13T14:22:22.680Z,95119.20
2023-01-13T14:24:57.966Z,95132.00
2023-01-13T14:27:30.553Z,95135.80
2023-01-13T14:30:00.648Z,95131.00
2023-01-13T14:32:36.571Z,95135.60
2023-01-13T14:35:07.096Z,95135.80
2023-01-13T14:37:42.155Z,95131.40
2023-01-13T14:40:35.908Z,95133.60
2023-01-13T14:43:09.133Z,95132.20
2023-01-13T14:45:35.744Z,95134.20
2023-01-13T14:48:09.972Z,95133.40
2023-01-13T14:50:36.672Z,95127.00
2023-01-13T14:53:05.028Z,95136.00
2023-01-13T14:55:41.535Z,95134.00
2023-01-13T14:58:28.605Z,95134.60
2023-01-13T15:01:30.103Z,95143.00
2023-01-13T15:04:26.225Z,95138.80
2023-01-13T15:06:56.491Z,95137.60
2023-01-13T15:09:28.408Z,95149.40
2023-01-13T15:11:56.394Z,95143.40
2023-01-13T15:14:34.811Z,95146.80
2023-01-13T15:17:03.374Z,95169.00
2023-01-13T15:19:29.944Z,95183.00
2023-01-13T15:21:56.614Z,95177.60
2023-01-13T15:24:23.152Z,95185.00
2023-01-13T15:26:49.872Z,95189.40
2023-01-13T15:29:24.274Z,95177.60
2023-01-13T15:31:51.204Z,95177.40
2023-01-13T15:34:17.857Z,95175.00
2023-01-13T15:36:44.583Z,95181.00
2023-01-13T15:39:13.160Z,95183.80
2023-01-13T15:41:58.285Z,95176.80
2023-01-13T15:44:43.883Z,95182.00
2023-01-13T15:47:10.612Z,95188.40
2023-01-13T15:49:44.268Z,95182.60
2023-01-13T15:52:23.882Z,95190.00
2023-01-13T15:54:52.180Z,95188.80
2023-01-13T15:57:34.785Z,95185.60
2023-01-13T16:00:06.193Z,95196.00
2023-01-13T16:02:33.242Z,95199.40
2023-01-13T16:04:59.926Z,95203.00
2023-01-13T16:07:26.646Z,95197.60
2023-01-13T16:09:53.449Z,95210.40
2023-01-13T16:12:20.179Z,95219.60
2023-01-13T16:14:46.964Z,95217.80
2023-01-13T16:17:20.183Z,95228.00
2023-01-13T16:19:47.450Z,95226.60
2023-01-13T16:22:16.376Z,95235.00
2023-01-13T16:24:44.235Z,95240.60
2023-01-13T16:27:15.569Z,95239.20
2023-01-13T16:29:43.313Z,95246.20
2023-01-13T16:32:09.963Z,95252.80
2023-01-13T16:34:36.932Z,95257.40
2023-01-13T16:37:03.846Z,95262.20
2023-01-13T16:39:31.171Z,95260.60
2023-01-13T16:41:58.037Z,95265.60
2023-01-13T16:44:24.657Z,95261.40
2023-01-13T16:46:51.198Z,95272.00
2023-01-13T16:49:18.570Z,95271.40
2023-01-13T16:51:45.181Z,95266.40
2023-01-13T16:54:12.461Z,95270.40
2023-01-13T16:56:39.846Z,95276.20
2023-01-13T16:59:11.082Z,95274.80
2023-01-13T17:01:41.225Z,95281.00
2023-01-13T17:04:16.138Z,95282.80
2023-01-13T17:07:12.541Z,95287.80
2023-01-13T17:09:39.150Z,95283.60
2023-01-13T17:12:06.000Z,95283.60
2023-01-13T17:14:32.634Z,95287.80
2023-01-13T17:16:59.319Z,95297.20
2023-01-13T17:19:26.110Z,95286.80
2023-01-13T17:21:53.155Z,95292.40
2023-01-13T17:24:20.656Z,95294.00
2023-01-13T17:26:50.968Z,95288.20
2023-01-13T17:29:25.156Z,95282.40
2023-01-13T17:31:52.963Z,95282.40
2023-01-13T17:34:21.311Z,95290.20
2023-01-13T17:36:48.502Z,95299.00
2023-01-13T17:39:21.599Z,95301.00
2023-01-13T17:41:48.120Z,95303.60
2023-01-13T17:44:17.794Z,95301.20
2023-01-13T17:46:45.296Z,95302.00
2023-01-13T17:49:19.454Z,95306.00
2023-01-13T17:51:50.928Z,95321.40
2023-01-13T17:54:17.987Z,95323.20
2023-01-13T17:56:44.630Z,95338.00
2023-01-13T17:59:13.100Z,95334.60
2023-01-13T18:01:40.619Z,95333.40
2023-01-13T18:04:09.839Z,95338.20
2023-01-13T18:06:36.481Z,95349.80
2023-01-13T18:09:03.201Z,95340.80
2023-01-13T18:11:29.883Z,95351.40
2023-01-13T18:13:57.130Z,95352.20
2023-01-13T18:16:26.955Z,95354.80
2023-01-13T18:19:18.954Z,95353.20
2023-01-13T18:22:06.143Z,95355.40
2023-01-13T18:24:52.085Z,95355.40
2023-01-13T18:27:28.928Z,95358.80
2023-01-13T18:29:59.321Z,95359.00
2023-01-13T18:32:32.877Z,95365.20
2023-01-13T18:35:09.797Z,95363.00
2023-01-13T18:37:40.376Z,95371.00
2023-01-13T18:40:10.915Z,95365.20
2023-01-13T18:42:54.523Z,95374.00
2023-01-13T18:45:30.922Z,95383.20
2023-01-13T18:48:01.181Z,95381.40
2023-01-13T18:50:28.332Z,95388.00
2023-01-13T18:52:56.097Z,95387.80
2023-01-13T18:55:23.615Z,95391.60
2023-01-13T18:57:51.233Z,95399.40
2023-01-13T19:00:21.092Z,95397.20
2023-01-13T19:02:50.758Z,95394.80
2023-01-13T19:05:17.837Z,95402.80
2023-01-13T19:07:50.508Z,95403.40
2023-01-13T19:10:18.362Z,95402.00
2023-01-13T19:12:45.164Z,95406.80
2023-01-13T19:15:12.323Z,95404.40
2023-01-13T19:17:39.193Z,95409.80
2023-01-13T19:20:06.650Z,95409.40
2023-01-13T19:22:35.545Z,95409.20
2023-01-13T19:25:03.763Z,95408.20
2023-01-13T19:27:31.282Z,95401.00
2023-01-13T19:30:00.224Z,95400.00
2023-01-13T19:32:28.026Z,95394.40
2023-01-13T19:34:59.339Z,95392.60
2023-01-13T19:37:34.244Z,95392.40
2023-01-13T19:40:01.307Z,95395.00
2023-01-13T19:42:46.632Z,95399.80
2023-01-13T19:45:28.281Z,95408.60
2023-01-13T19:47:57.128Z,95421.80
2023-01-13T19:50:24.981Z,95423.20
2023-01-13T19:52:51.884Z,95425.60
2023-01-13T19:55:20.042Z,95425.80
2023-01-13T19:57:47.054Z,95426.60
2023-01-13T20:00:18.378Z,95429.40
2023-01-13T20:02:49.221Z,95439.60
2023-01-13T20:05:21.186Z,95449.80
2023-01-13T20:07:49.330Z,95458.20
2023-01-13T20:10:17.541Z,95461.60
2023-01-13T20:12:44.278Z,95463.40
2023-01-13T20:15:11.325Z,95468.60
2023-01-13T20:17:38.055Z,95471.40
2023-01-13T20:20:05.110Z,95473.60
2023-01-13T20:22:31.723Z,95484.60
2023-01-13T20:24:58.408Z,95506.60
2023-01-13T20:27:25.063Z,95516.80
2023-01-13T20:29:51.814Z,95532.00
2023-01-13T20:32:18.646Z,95545.80
2023-01-13T20:34:45.370Z,95550.60
2023-01-13T20:37:11.963Z,95560.40
2023-01-13T20:39:41.028Z,95565.40
2023-01-13T20:42:27.272Z,95575.40
2023-01-13T20:44:53.986Z,95552.80
2023-01-13T20:47:20.709Z,95550.80
2023-01-13T20:49:47.531Z,95544.40
2023-01-13T20:52:14.168Z,95551.60
2023-01-13T20:54:41.586Z,95542.80
2023-01-13T20:57:10.471Z,95547.20
2023-01-13T20:59:38.856Z,95550.40
2023-01-13T21:02:12.882Z,95556.60
2023-01-13T21:04:40.449Z,95564.20
2023-01-13T21:07:07.379Z,95563.60
2023-01-13T21:09:34.141Z,95568.20
2023-01-13T21:12:19.381Z,95566.40
2023-01-13T21:15:04.658Z,95560.40
2023-01-13T21:17:50.247Z,95550.80
2023-01-13T21:20:16.981Z,95558.00
2023-01-13T21:22:48.588Z,95572.40
2023-01-13T21:25:17.012Z,95578.80
2023-01-13T21:27:46.431Z,95582.60
2023-01-13T21:30:15.483Z,95583.40
2023-01-13T21:32:44.449Z,95586.60
2023-01-13T21:35:13.311Z,95591.20
2023-01-13T21:37:42.306Z,95589.40
2023-01-13T21:40:12.721Z,95595.80
2023-01-13T21:42:58.568Z,95601.80
2023-01-13T21:45:44.151Z,95612.00
2023-01-13T21:48:10.864Z,95620.60
2023-01-13T21:50:38.632Z,95621.80
2023-01-13T21:53:05.716Z,95621.00
2023-01-13T21:55:33.018Z,95625.80
2023-01-13T21:58:12.167Z,95622.80
2023-01-13T22:00:43.083Z,95629.60
2023-01-13T22:03:12.315Z,95629.20
2023-01-13T22:05:39.253Z,95634.20
2023-01-13T22:08:07.100Z,95635.60
2023-01-13T22:10:34.288Z,95635.80
2023-01-13T22:13:22.744Z,95636.00
2023-01-13T22:15:49.568Z,95640.00
2023-01-13T22:18:18.129Z,95643.40
2023-01-13T22:20:45.227Z,95653.80
2023-01-13T22:23:11.959Z,95665.60
2023-01-13T22:25:38.630Z,95670.20
2023-01-13T22:28:06.098Z,95674.80
2023-01-13T22:30:33.326Z,95672.40
2023-01-13T22:33:00.193Z,95672.20
2023-01-13T22:35:27.067Z,95668.40
2023-01-13T22:37:53.621Z,95667.80
2023-01-13T22:40:20.383Z,95672.20
2023-01-13T22:42:46.955Z,95667.40
2023-01-13T22:45:14.539Z,95665.40
2023-01-13T22:47:41.424Z,95666.20
2023-01-13T22:50:09.827Z,95676.20
2023-01-13T22:52:36.514Z,95678.60
2023-01-13T22:55:04.302Z,95677.60
2023-01-13T22:57:46.743Z,95687.20
2023-01-13T23:00:15.533Z,95681.00
2023-01-13T23:02:42.154Z,95678.40
2023-01-13T23:05:09.020Z,95677.20
2023-01-13T23:07:36.154Z,95682.40
2023-01-13T23:10:04.255Z,95683.00
2023-01-13T23:12:30.937Z,95681.80
2023-01-13T23:14:57.611Z,95687.60
2023-01-13T23:17:24.329Z,95679.00
2023-01-13T23:19:50.868Z,95683.40
2023-01-13T23:22:17.423Z,95681.20
2023-01-13T23:24:43.995Z,95684.40
2023-01-13T23:27:10.596Z,95692.20
2023-01-13T23:29:37.240Z,95693.00
2023-01-13T23:32:04.184Z,95690.20
2023-01-13T23:34:30.800Z,95680.60
2023-01-13T23:36:57.367Z,95676.00
2023-01-13T23:39:24.778Z,95672.60
2023-01-13T23:41:51.552Z,95672.80
2023-01-13T23:44:18.164Z,95670.60
2023-01-13T23:46:44.789Z,95670.00
2023-01-13T23:49:11.426Z,95670.00
2023-01-13T23:51:38.273Z,95663.40
2023-01-13T23:54:05.181Z,95666.00
2023-01-13T23:56:31.887Z,95661.60
2023-01-13T23:58:58.902Z,95664.60
